Time;durP1;ratioP1;P1;durP2;ratioP2;P2;SDS_P1;SDS_P2;PMS_P1;PMS_P2;Temp;Humidity;BMP_temperature;BMP_pressure;BME280_temperature;BME280_humidity;BME280_pressure;Samples;Min_cycle;Max_cycle;Signal;HPM_P1;HPM_P2
2023/09/30 00:00:00;;;;;;;4.43;3.00;;;19.70;67.30;;;;;;5134457;27;20184;-67
2023/09/30 00:02:26;;;;;;;4.20;2.83;;;19.70;67.70;;;;;;5135217;27;20183;-66
2023/09/30 00:04:52;;;;;;;4.63;2.78;;;19.70;67.70;;;;;;5135110;27;20172;-67
2023/09/30 00:07:17;;;;;;;3.13;2.63;;;19.70;67.70;;;;;;5134040;27;20474;-67
2023/09/30 00:09:43;;;;;;;3.65;3.08;;;19.70;67.70;;;;;;5135257;27;20183;-66
2023/09/30 00:12:08;;;;;;;4.32;2.80;;;19.60;67.50;;;;;;5134976;27;20168;-66
2023/09/30 00:14:34;;;;;;;4.05;3.13;;;19.70;67.70;;;;;;5134080;27;20169;-66
2023/09/30 00:17:00;;;;;;;3.83;2.95;;;19.70;67.80;;;;;;5134889;27;20161;-67
2023/09/30 00:19:26;;;;;;;4.75;3.58;;;19.60;67.80;;;;;;5134642;27;20180;-67
2023/09/30 00:21:51;;;;;;;4.22;2.85;;;19.70;67.90;;;;;;5122542;27;20169;-67
2023/09/30 00:24:17;;;;;;;5.50;3.03;;;19.70;67.90;;;;;;5113910;28;21021;-67
2023/09/30 00:26:42;;;;;;;3.20;2.80;;;19.60;67.80;;;;;;5114380;28;20177;-67
2023/09/30 00:29:08;;;;;;;4.10;2.42;;;19.60;67.80;;;;;;5113193;28;20176;-67
2023/09/30 00:31:33;;;;;;;2.72;2.10;;;19.60;67.90;;;;;;5113900;28;20252;-66
2023/09/30 00:33:59;;;;;;;3.72;2.83;;;19.60;67.80;;;;;;5113816;28;20165;-67
2023/09/30 00:36:25;;;;;;;4.13;2.60;;;19.60;67.90;;;;;;5113089;28;20173;-66
2023/09/30 00:38:52;;;;;;;4.53;2.95;;;19.60;67.90;;;;;;5114113;28;20200;-66
2023/09/30 00:41:17;;;;;;;5.70;3.10;;;19.60;67.90;;;;;;5113380;28;20184;-65
2023/09/30 00:43:45;;;;;;;3.97;2.90;;;19.60;67.90;;;;;;5113270;28;20172;-66
2023/09/30 00:46:30;;;;;;;3.67;2.95;;;19.60;68.00;;;;;;5095595;28;20307;-66
2023/09/30 00:48:58;;;;;;;4.78;3.10;;;19.60;67.90;;;;;;5095587;28;20234;-66
2023/09/30 00:51:23;;;;;;;4.07;2.60;;;19.60;67.90;;;;;;5094345;28;20739;-66
2023/09/30 00:53:50;;;;;;;3.72;2.58;;;19.60;67.90;;;;;;5095454;28;20177;-66
2023/09/30 00:56:16;;;;;;;3.53;2.67;;;19.60;67.90;;;;;;5112683;28;20235;-67
2023/09/30 00:58:42;;;;;;;3.42;2.50;;;19.60;68.10;;;;;;5078674;28;20177;-66
2023/09/30 01:01:07;;;;;;;2.53;2.08;;;19.60;67.90;;;;;;5113237;28;20176;-67
2023/09/30 01:03:34;;;;;;;4.68;3.08;;;19.60;68.00;;;;;;5094560;28;20314;-67
2023/09/30 01:05:59;;;;;;;4.28;2.88;;;19.60;68.00;;;;;;5095452;28;20177;-67
2023/09/30 01:08:27;;;;;;;4.57;2.90;;;19.60;68.00;;;;;;5095303;28;20180;-67
2023/09/30 01:10:53;;;;;;;3.60;2.85;;;19.50;67.90;;;;;;5094822;28;20674;-67
2023/09/30 01:13:18;;;;;;;3.75;2.55;;;19.60;68.00;;;;;;5094952;28;20195;-67
2023/09/30 01:15:44;;;;;;;3.63;2.67;;;19.60;68.00;;;;;;5113310;28;20177;-66
2023/09/30 01:18:10;;;;;;;4.00;2.63;;;19.50;67.80;;;;;;5112216;28;20662;-66
2023/09/30 01:20:36;;;;;;;3.10;2.50;;;19.60;68.00;;;;;;5114048;27;20226;-67
2023/09/30 01:23:01;;;;;;;4.43;2.33;;;19.50;67.90;;;;;;5115427;27;20549;-67
2023/09/30 01:25:27;;;;;;;2.65;2.38;;;19.50;67.80;;;;;;5114636;27;20639;-67
2023/09/30 01:27:53;;;;;;;3.70;2.40;;;19.50;67.80;;;;;;5115703;27;20655;-67
2023/09/30 01:30:19;;;;;;;4.57;2.42;;;19.60;68.00;;;;;;5133067;27;20694;-67
2023/09/30 01:32:45;;;;;;;4.10;2.53;;;19.50;67.80;;;;;;5132839;27;20197;-66
2023/09/30 01:35:10;;;;;;;3.22;2.55;;;19.50;67.80;;;;;;5114981;27;20210;-67
2023/09/30 01:37:36;;;;;;;4.32;2.97;;;19.50;67.80;;;;;;5133577;27;21060;-66
2023/09/30 01:40:03;;;;;;;3.97;2.58;;;19.60;67.90;;;;;;5132559;27;20173;-67
2023/09/30 01:42:29;;;;;;;3.17;2.53;;;19.50;67.80;;;;;;5133545;28;20180;-66
2023/09/30 01:44:56;;;;;;;3.83;2.50;;;19.50;67.80;;;;;;5133804;28;20286;-66
2023/09/30 01:47:22;;;;;;;3.15;2.42;;;19.50;67.80;;;;;;5132081;28;20612;-66
2023/09/30 01:49:47;;;;;;;4.03;2.70;;;19.50;67.80;;;;;;5133534;28;20173;-66
2023/09/30 01:52:13;;;;;;;3.78;2.63;;;19.50;67.70;;;;;;5133147;28;20187;-67
2023/09/30 01:54:38;;;;;;;3.42;2.40;;;19.50;67.90;;;;;;5132806;28;20200;-66
2023/09/30 01:57:04;;;;;;;4.40;2.80;;;19.50;67.80;;;;;;5133226;28;20271;-66
2023/09/30 01:59:30;;;;;;;3.60;2.60;;;19.50;67.90;;;;;;5133164;28;20259;-66
2023/09/30 02:01:55;;;;;;;4.28;2.50;;;19.50;67.80;;;;;;5133084;27;20176;-66
2023/09/30 02:04:21;;;;;;;3.50;2.28;;;19.50;67.80;;;;;;5137007;27;20180;-67
2023/09/30 02:06:46;;;;;;;4.47;2.67;;;19.50;67.80;;;;;;5136734;27;20173;-67
2023/09/30 02:09:12;;;;;;;2.78;2.13;;;19.50;67.80;;;;;;5137355;27;20168;-67
2023/09/30 02:11:38;;;;;;;2.97;2.35;;;19.50;67.80;;;;;;5137397;27;20219;-67
2023/09/30 02:14:05;;;;;;;3.85;2.47;;;19.50;67.80;;;;;;5136367;27;20172;-67
2023/09/30 02:16:31;;;;;;;2.97;2.30;;;19.40;67.80;;;;;;5137418;27;20255;-66
2023/09/30 02:18:56;;;;;;;4.57;2.63;;;19.40;67.70;;;;;;5137193;27;20599;-67
2023/09/30 02:21:22;;;;;;;3.90;2.95;;;19.40;67.70;;;;;;5128550;27;20175;-67
2023/09/30 02:23:48;;;;;;;3.53;2.40;;;19.50;67.70;;;;;;5116781;28;20169;-66
2023/09/30 02:26:17;;;;;;;4.45;2.70;;;19.40;67.70;;;;;;5116322;28;20269;-67
2023/09/30 02:28:43;;;;;;;3.40;2.35;;;19.40;67.70;;;;;;5115809;28;20172;-67
2023/09/30 02:31:08;;;;;;;3.35;2.78;;;19.40;67.70;;;;;;5115966;28;20208;-66
2023/09/30 02:33:38;;;;;;;4.07;2.55;;;19.40;67.80;;;;;;5116462;28;20180;-66
2023/09/30 02:36:07;;;;;;;2.70;2.20;;;19.40;67.70;;;;;;5115367;28;20173;-66
2023/09/30 02:38:32;;;;;;;4.13;2.42;;;19.40;67.70;;;;;;5098551;28;20177;-66
2023/09/30 02:40:58;;;;;;;3.67;2.35;;;19.40;67.70;;;;;;5115995;28;20635;-66
2023/09/30 02:43:23;;;;;;;3.70;2.38;;;19.40;67.70;;;;;;5115376;28;20177;-66
2023/09/30 02:45:50;;;;;;;6.45;2.88;;;19.40;67.80;;;;;;5115937;28;20235;-66
2023/09/30 02:48:15;;;;;;;3.78;2.63;;;19.40;67.60;;;;;;5115994;28;20210;-66
2023/09/30 02:50:46;;;;;;;3.70;2.30;;;19.40;67.60;;;;;;5115391;28;20200;-66
2023/09/30 02:53:15;;;;;;;4.35;2.88;;;19.40;67.60;;;;;;5115797;28;20212;-66
2023/09/30 02:55:41;;;;;;;3.15;2.10;;;19.40;67.60;;;;;;5115833;28;20619;-66
2023/09/30 02:58:08;;;;;;;3.35;2.17;;;19.40;67.60;;;;;;5114749;28;20174;-66
2023/09/30 03:00:37;;;;;;;3.92;2.58;;;19.40;67.70;;;;;;5115945;28;20183;-66
2023/09/30 03:03:03;;;;;;;3.45;2.35;;;19.40;67.60;;;;;;5115173;28;20252;-67
2023/09/30 03:05:32;;;;;;;3.85;2.50;;;19.40;67.70;;;;;;5115890;28;20204;-67
2023/09/30 03:07:57;;;;;;;3.72;2.20;;;19.40;67.60;;;;;;5115917;28;20174;-67
2023/09/30 03:10:26;;;;;;;3.85;2.28;;;19.30;67.60;;;;;;5114918;28;21022;-66
2023/09/30 03:12:55;;;;;;;3.10;2.50;;;19.40;67.60;;;;;;5115353;28;20173;-66
2023/09/30 03:15:20;;;;;;;5.60;2.88;;;19.40;67.70;;;;;;5115410;28;20200;-67
2023/09/30 03:17:46;;;;;;;3.10;2.13;;;19.30;67.60;;;;;;5114770;28;20628;-66
2023/09/30 03:20:12;;;;;;;3.88;2.50;;;19.30;67.60;;;;;;5115282;28;20281;-67
2023/09/30 03:22:43;;;;;;;4.18;2.20;;;19.40;67.70;;;;;;5133235;27;20176;-66
2023/09/30 03:25:12;;;;;;;4.18;2.50;;;19.40;67.70;;;;;;5134802;27;20172;-67
2023/09/30 03:27:38;;;;;;;3.45;2.20;;;19.30;67.60;;;;;;5135755;27;20638;-67
2023/09/30 03:30:08;;;;;;;4.85;2.50;;;19.30;67.70;;;;;;5135586;27;20212;-67
2023/09/30 03:32:36;;;;;;;4.07;2.35;;;19.30;67.70;;;;;;5135025;27;20646;-66
2023/09/30 03:35:02;;;;;;;3.42;2.58;;;19.30;67.70;;;;;;5135623;27;20175;-66
2023/09/30 03:37:31;;;;;;;3.28;2.40;;;19.30;67.70;;;;;;5135608;27;20172;-66
2023/09/30 03:39:56;;;;;;;3.67;2.42;;;19.30;67.70;;;;;;5135020;27;20208;-66
2023/09/30 03:42:22;;;;;;;3.47;2.60;;;19.30;67.80;;;;;;5135365;27;20212;-66
2023/09/30 03:44:51;;;;;;;4.10;2.67;;;19.30;67.80;;;;;;5135569;27;20619;-66
2023/09/30 03:47:16;;;;;;;2.65;2.30;;;19.30;67.80;;;;;;5134181;27;20235;-67
2023/09/30 03:49:42;;;;;;;4.40;2.25;;;19.30;67.80;;;;;;5135661;27;20169;-66
2023/09/30 03:52:09;;;;;;;3.38;2.47;;;19.30;67.80;;;;;;5134460;27;20212;-67
2023/09/30 03:54:35;;;;;;;2.53;2.08;;;19.30;67.80;;;;;;5135454;27;20174;-66
2023/09/30 03:57:01;;;;;;;3.53;2.60;;;19.30;67.80;;;;;;5135400;27;20255;-66
2023/09/30 03:59:27;;;;;;;2.30;2.10;;;19.30;67.80;;;;;;5134617;27;20730;-66
2023/09/30 04:01:53;;;;;;;3.10;2.47;;;19.30;67.90;;;;;;5135436;27;20236;-66
2023/09/30 04:04:21;;;;;;;3.67;2.80;;;19.30;67.90;;;;;;5134869;27;20247;-67
2023/09/30 04:06:46;;;;;;;4.03;2.38;;;19.30;68.70;;;;;;5134469;27;20176;-66
2023/09/30 04:09:12;;;;;;;4.10;2.40;;;19.30;67.80;;;;;;5134993;27;20262;-67
2023/09/30 04:11:38;;;;;;;3.38;2.45;;;19.30;67.90;;;;;;5135214;27;20222;-66
2023/09/30 04:14:07;;;;;;;4.05;2.70;;;19.30;67.90;;;;;;5133779;27;20173;-67
2023/09/30 04:16:33;;;;;;;4.78;2.70;;;19.30;67.90;;;;;;5135013;27;20259;-67
2023/09/30 04:18:59;;;;;;;4.25;2.22;;;19.30;67.90;;;;;;5134829;27;20624;-67
2023/09/30 04:21:24;;;;;;;2.95;2.30;;;19.20;67.80;;;;;;5126189;27;20183;-66
2023/09/30 04:23:50;;;;;;;3.70;2.70;;;19.20;67.90;;;;;;5114540;28;20165;-66
2023/09/30 04:26:15;;;;;;;4.13;2.35;;;19.30;67.90;;;;;;5113368;28;20176;-67
2023/09/30 04:28:41;;;;;;;2.55;2.05;;;19.20;67.80;;;;;;5113510;28;20256;-67
2023/09/30 04:31:07;;;;;;;2.53;2.25;;;19.20;67.90;;;;;;5113884;28;20288;-66
2023/09/30 04:33:35;;;;;;;2.58;2.15;;;19.20;67.90;;;;;;5114025;28;20181;-66
2023/09/30 04:36:01;;;;;;;3.80;2.30;;;19.20;67.90;;;;;;5113014;28;20590;-66
2023/09/30 04:38:27;;;;;;;3.08;2.50;;;19.20;67.90;;;;;;5113670;28;20230;-66
2023/09/30 04:40:54;;;;;;;3.00;2.53;;;19.20;67.80;;;;;;5114215;28;20177;-66
2023/09/30 04:43:20;;;;;;;2.92;2.33;;;19.20;67.90;;;;;;5113045;28;20170;-66
2023/09/30 04:45:46;;;;;;;2.42;2.20;;;19.20;67.90;;;;;;5113764;28;20224;-66
2023/09/30 04:48:12;;;;;;;4.05;2.50;;;19.20;67.90;;;;;;5113564;28;20534;-66
2023/09/30 04:50:39;;;;;;;2.63;2.35;;;19.20;67.80;;;;;;5112835;28;20209;-66
2023/09/30 04:53:05;;;;;;;3.53;2.30;;;19.20;67.90;;;;;;5113583;28;20173;-66
2023/09/30 04:55:30;;;;;;;3.38;2.40;;;19.20;67.90;;;;;;5112936;28;20183;-65
2023/09/30 04:57:56;;;;;;;3.47;2.47;;;19.20;67.90;;;;;;5113553;28;20181;-66
2023/09/30 05:00:25;;;;;;;2.40;2.20;;;19.20;67.90;;;;;;5113396;28;20222;-66
2023/09/30 05:02:52;;;;;;;3.35;2.53;;;19.20;67.90;;;;;;5112807;28;20693;-67
2023/09/30 05:05:18;;;;;;;3.05;2.22;;;19.20;67.90;;;;;;5113151;28;20181;-67
2023/09/30 05:07:43;;;;;;;3.88;2.38;;;19.20;67.90;;;;;;5113703;28;20169;-67
2023/09/30 05:10:10;;;;;;;4.65;2.47;;;19.20;67.90;;;;;;5112429;28;20264;-67
2023/09/30 05:12:36;;;;;;;2.45;1.92;;;19.20;67.90;;;;;;5113292;28;20666;-66
2023/09/30 05:15:03;;;;;;;3.08;2.30;;;19.20;67.90;;;;;;5113086;28;20686;-66
2023/09/30 05:17:29;;;;;;;4.05;2.70;;;19.20;67.90;;;;;;5112534;28;20252;-66
2023/09/30 05:19:56;;;;;;;3.17;2.20;;;19.20;67.90;;;;;;5113206;28;20268;-66
2023/09/30 05:22:23;;;;;;;3.78;2.45;;;19.20;67.90;;;;;;5128901;27;20177;-67
2023/09/30 05:24:51;;;;;;;3.80;2.45;;;19.10;67.90;;;;;;5133068;27;20560;-67
2023/09/30 05:27:17;;;;;;;4.18;2.47;;;19.20;67.90;;;;;;5133436;27;20410;-67
2023/09/30 05:29:43;;;;;;;3.42;2.53;;;19.20;68.00;;;;;;5133689;27;20259;-67
2023/09/30 05:32:08;;;;;;;3.65;2.50;;;19.20;68.00;;;;;;5132531;27;20204;-67
2023/09/30 05:34:34;;;;;;;2.70;2.30;;;19.20;68.00;;;;;;5133491;27;20179;-66
2023/09/30 05:36:59;;;;;;;3.80;2.60;;;19.20;68.00;;;;;;5133654;27;20178;-65
2023/09/30 05:39:25;;;;;;;3.85;2.20;;;19.20;68.00;;;;;;5132539;27;20638;-66
2023/09/30 05:41:51;;;;;;;2.85;2.15;;;19.10;67.90;;;;;;5133619;27;20172;-66
2023/09/30 05:44:16;;;;;;;3.35;2.47;;;19.10;67.90;;;;;;5133065;28;20176;-67
2023/09/30 05:46:43;;;;;;;2.65;1.90;;;19.10;67.90;;;;;;5132711;28;20237;-67
2023/09/30 05:49:13;;;;;;;2.80;2.13;;;19.10;67.90;;;;;;5133167;28;20179;-67
2023/09/30 05:51:40;;;;;;;2.47;2.15;;;19.10;68.00;;;;;;5132830;28;20208;-66
2023/09/30 05:54:08;;;;;;;3.50;2.20;;;19.10;68.00;;;;;;5133236;28;20173;-66
2023/09/30 05:56:33;;;;;;;3.33;2.50;;;19.10;68.00;;;;;;5133433;28;20212;-65
2023/09/30 05:58:59;;;;;;;3.92;3.03;;;19.10;67.90;;;;;;5132533;28;20164;-66
2023/09/30 06:01:24;;;;;;;3.13;2.38;;;19.10;67.90;;;;;;5133346;28;20168;-66
2023/09/30 06:03:50;;;;;;;3.05;2.10;;;19.10;68.00;;;;;;5133567;28;20216;-66
2023/09/30 06:06:16;;;;;;;2.67;2.25;;;19.10;67.90;;;;;;5132327;28;20177;-67
2023/09/30 06:08:47;;;;;;;3.22;2.30;;;19.10;67.90;;;;;;5133271;28;20203;-66
2023/09/30 06:11:19;;;;;;;4.40;2.65;;;19.10;67.90;;;;;;5132907;28;20287;-67
2023/09/30 06:13:47;;;;;;;3.42;2.47;;;19.10;67.90;;;;;;5132465;28;20180;-66
2023/09/30 06:16:13;;;;;;;3.83;2.40;;;19.10;67.90;;;;;;5132874;28;20180;-66
2023/09/30 06:18:39;;;;;;;2.83;2.10;;;19.20;68.00;;;;;;5133337;28;20176;-66
2023/09/30 06:21:04;;;;;;;3.28;2.65;;;19.10;67.90;;;;;;5127544;28;20166;-66
2023/09/30 06:23:30;;;;;;;4.15;2.90;;;19.10;67.90;;;;;;5112766;28;20196;-67
2023/09/30 06:25:57;;;;;;;2.72;2.33;;;19.20;67.90;;;;;;5112776;28;20242;-67
2023/09/30 06:28:25;;;;;;;3.83;2.22;;;19.10;67.90;;;;;;5111463;28;20262;-67
2023/09/30 06:30:52;;;;;;;4.25;3.00;;;19.10;67.80;;;;;;5112693;28;20205;-66
2023/09/30 06:33:17;;;;;;;3.20;2.08;;;19.10;67.80;;;;;;5112404;28;20535;-66
2023/09/30 06:35:50;;;;;;;4.63;2.97;;;19.10;67.90;;;;;;5111764;28;20175;-67
2023/09/30 06:38:18;;;;;;;2.80;2.25;;;19.10;67.80;;;;;;5112176;28;20632;-66
2023/09/30 06:40:45;;;;;;;2.53;2.13;;;19.20;67.90;;;;;;5112350;28;20173;-65
2023/09/30 06:43:10;;;;;;;3.75;2.47;;;19.10;67.70;;;;;;5111300;28;20173;-67
2023/09/30 06:45:41;;;;;;;3.05;2.50;;;19.20;67.70;;;;;;5112348;28;20951;-67
2023/09/30 06:48:07;;;;;;;2.75;2.28;;;19.20;67.80;;;;;;5111872;28;20586;-67
2023/09/30 06:50:32;;;;;;;3.40;2.38;;;19.20;67.70;;;;;;5116015;28;20725;-66
2023/09/30 06:52:59;;;;;;;2.53;2.08;;;19.20;67.70;;;;;;5115834;28;20165;-66
2023/09/30 06:55:27;;;;;;;3.22;2.40;;;19.20;67.70;;;;;;5115001;28;20177;-66
2023/09/30 06:57:52;;;;;;;2.70;2.15;;;19.20;67.70;;;;;;5116048;28;20195;-66
2023/09/30 07:00:18;;;;;;;2.92;2.33;;;19.20;67.70;;;;;;5115605;28;20169;-66
2023/09/30 07:02:44;;;;;;;2.88;2.30;;;19.20;67.60;;;;;;5115049;28;20259;-66
2023/09/30 07:05:11;;;;;;;3.78;2.22;;;19.20;67.50;;;;;;5115556;28;20177;-67
2023/09/30 07:07:37;;;;;;;3.00;2.20;;;19.20;67.50;;;;;;5115539;28;20180;-66
2023/09/30 07:10:04;;;;;;;3.60;2.17;;;19.30;67.60;;;;;;5114731;28;20177;-67
2023/09/30 07:12:31;;;;;;;3.05;2.25;;;19.20;67.50;;;;;;5115486;28;20192;-67
2023/09/30 07:14:57;;;;;;;3.22;2.42;;;19.30;67.50;;;;;;5115624;28;20213;-67
2023/09/30 07:17:23;;;;;;;2.95;2.33;;;19.30;67.50;;;;;;5114463;28;20173;-67
2023/09/30 07:19:48;;;;;;;2.45;1.85;;;19.20;67.40;;;;;;5115501;28;20180;-67
2023/09/30 07:22:14;;;;;;;3.13;2.30;;;19.30;67.50;;;;;;5129784;27;20267;-67
2023/09/30 07:24:39;;;;;;;3.25;2.13;;;19.30;67.40;;;;;;5134978;27;20179;-67
2023/09/30 07:27:06;;;;;;;2.53;2.10;;;19.30;67.40;;;;;;5135536;27;20187;-67
2023/09/30 07:29:33;;;;;;;3.35;2.28;;;19.30;67.40;;;;;;5135890;27;20183;-68
2023/09/30 07:31:58;;;;;;;3.85;2.47;;;19.40;67.40;;;;;;5135016;27;20215;-66
2023/09/30 07:34:24;;;;;;;2.47;1.92;;;19.40;67.40;;;;;;5135728;27;20172;-67
2023/09/30 07:36:49;;;;;;;3.85;2.42;;;19.40;67.30;;;;;;5135627;27;20252;-66
2023/09/30 07:39:15;;;;;;;2.63;2.22;;;19.40;67.30;;;;;;5134578;27;20272;-67
2023/09/30 07:41:40;;;;;;;3.10;2.80;;;19.40;67.20;;;;;;5135436;27;20164;-67
2023/09/30 07:44:06;;;;;;;4.05;2.58;;;19.40;67.20;;;;;;5135190;27;20211;-67
2023/09/30 07:46:32;;;;;;;5.10;3.05;;;19.50;67.20;;;;;;5134523;27;20307;-67
2023/09/30 07:48:59;;;;;;;3.30;2.65;;;19.50;67.20;;;;;;5135463;27;20207;-68
2023/09/30 07:51:24;;;;;;;2.85;2.17;;;19.50;67.10;;;;;;5134563;27;20215;-67
2023/09/30 07:53:50;;;;;;;3.38;2.47;;;19.50;67.10;;;;;;5135367;27;20165;-66
2023/09/30 07:56:19;;;;;;;3.45;2.75;;;19.60;67.10;;;;;;5134996;27;20520;-66
2023/09/30 07:58:44;;;;;;;3.03;2.30;;;19.50;67.00;;;;;;5134523;27;20233;-66
2023/09/30 08:01:10;;;;;;;3.90;2.45;;;19.60;67.00;;;;;;5133751;27;20173;-67
2023/09/30 08:03:35;;;;;;;3.25;2.33;;;19.60;67.00;;;;;;5135136;27;20224;-67
2023/09/30 08:06:02;;;;;;;3.60;2.38;;;19.60;67.00;;;;;;5134302;27;20654;-67
2023/09/30 08:08:29;;;;;;;2.88;2.45;;;19.60;67.00;;;;;;5134815;27;20690;-67
2023/09/30 08:10:56;;;;;;;2.97;2.33;;;19.60;66.90;;;;;;5135194;27;20214;-67
2023/09/30 08:13:24;;;;;;;4.00;2.90;;;19.70;67.00;;;;;;5134033;27;20184;-67
2023/09/30 08:15:51;;;;;;;3.25;2.35;;;19.70;66.90;;;;;;5135067;27;20183;-66
2023/09/30 08:18:16;;;;;;;3.05;2.38;;;19.80;67.00;;;;;;5134628;27;20176;-67
2023/09/30 08:20:42;;;;;;;3.85;2.42;;;19.70;66.90;;;;;;5132507;27;20703;-67
2023/09/30 08:23:07;;;;;;;4.22;2.40;;;19.80;67.90;;;;;;5113899;28;20201;-67
2023/09/30 08:25:33;;;;;;;2.80;2.33;;;19.80;67.00;;;;;;5114035;28;20180;-67
2023/09/30 08:27:58;;;;;;;3.38;2.40;;;19.80;67.00;;;;;;5113137;28;20226;-67
2023/09/30 08:30:24;;;;;;;4.05;3.03;;;19.80;67.00;;;;;;5114076;28;20193;-67
2023/09/30 08:32:50;;;;;;;2.83;2.42;;;19.80;67.00;;;;;;5114197;28;20173;-67
2023/09/30 08:35:15;;;;;;;4.28;2.65;;;19.90;67.00;;;;;;5113243;28;20166;-66
2023/09/30 08:37:41;;;;;;;3.30;2.50;;;19.90;67.00;;;;;;5113770;28;20173;-67
2023/09/30 08:40:09;;;;;;;4.22;2.80;;;19.90;66.90;;;;;;5113654;28;20181;-66
2023/09/30 08:42:35;;;;;;;3.92;2.80;;;19.90;66.90;;;;;;5113321;28;20187;-67
2023/09/30 08:45:01;;;;;;;2.70;2.50;;;19.90;66.90;;;;;;5113550;28;20214;-67
2023/09/30 08:47:28;;;;;;;4.82;2.50;;;19.90;66.90;;;;;;5113227;28;20225;-67
2023/09/30 08:49:56;;;;;;;3.60;2.45;;;20.00;66.90;;;;;;5113644;28;20177;-67
2023/09/30 08:52:22;;;;;;;2.60;2.35;;;20.00;66.90;;;;;;5095587;28;20209;-67
2023/09/30 08:54:47;;;;;;;3.05;2.10;;;20.00;67.00;;;;;;5094809;28;20169;-66
2023/09/30 08:57:13;;;;;;;4.03;2.88;;;20.00;66.90;;;;;;5113450;28;20181;-67
2023/09/30 08:59:38;;;;;;;3.45;2.70;;;20.00;66.90;;;;;;5078407;28;20650;-66
2023/09/30 09:02:08;;;;;;;4.85;3.05;;;20.10;66.90;;;;;;5112629;28;20177;-68
2023/09/30 09:04:33;;;;;;;2.55;2.35;;;20.10;66.90;;;;;;5095376;28;20169;-67
2023/09/30 09:06:59;;;;;;;3.65;2.70;;;20.10;66.90;;;;;;5095070;28;20666;-67
2023/09/30 09:09:24;;;;;;;4.03;2.63;;;20.10;66.80;;;;;;5112607;28;20196;-67
2023/09/30 09:11:50;;;;;;;3.90;2.72;;;20.10;66.80;;;;;;5113155;28;20215;-67
2023/09/30 09:14:16;;;;;;;3.67;2.78;;;20.20;66.80;;;;;;5113305;28;20169;-67
2023/09/30 09:16:55;;;;;;;3.13;2.40;;;20.20;66.90;;;;;;5112656;28;20183;-67
2023/09/30 09:19:21;;;;;;;3.63;2.53;;;20.20;66.80;;;;;;5112848;28;20630;-66
2023/09/30 09:22:07;;;;;;;2.78;2.50;;;20.20;67.70;;;;;;5123905;27;20607;-66
2023/09/30 09:24:37;;;;;;;2.75;2.38;;;20.30;66.90;;;;;;5132750;27;20210;-66
2023/09/30 09:27:10;;;;;;;2.72;2.10;;;20.20;66.80;;;;;;5133616;27;20173;-67
2023/09/30 09:29:36;;;;;;;2.88;2.58;;;20.30;66.80;;;;;;5133640;27;20173;-66
2023/09/30 09:32:15;;;;;;;2.70;2.35;;;20.30;66.80;;;;;;5132676;27;20204;-66
2023/09/30 09:34:43;;;;;;;3.60;2.25;;;20.30;66.70;;;;;;5133569;27;20172;-66
2023/09/30 09:37:18;;;;;;;2.40;2.20;;;20.30;66.80;;;;;;5132706;27;20176;-66
2023/09/30 09:39:57;;;;;;;3.67;2.10;;;20.30;66.70;;;;;;5133676;27;20168;-67
2023/09/30 09:42:24;;;;;;;3.20;2.10;;;20.40;66.80;;;;;;5133268;27;20203;-66
2023/09/30 09:44:50;;;;;;;3.20;2.42;;;20.40;66.70;;;;;;5132978;28;20168;-66
2023/09/30 09:47:19;;;;;;;3.85;2.42;;;20.40;66.70;;;;;;5097931;28;20231;-67
2023/09/30 09:49:45;;;;;;;3.95;2.25;;;20.40;66.70;;;;;;5115302;28;20176;-66
2023/09/30 09:52:10;;;;;;;2.55;2.10;;;20.50;66.70;;;;;;5097074;28;20204;-67
2023/09/30 09:54:36;;;;;;;3.33;2.38;;;20.50;66.70;;;;;;5115002;28;20372;-66
2023/09/30 09:57:01;;;;;;;2.80;2.25;;;20.50;66.70;;;;;;5097864;28;20257;-66
2023/09/30 09:59:27;;;;;;;3.40;2.22;;;20.40;66.60;;;;;;5114079;28;20214;-67
2023/09/30 10:01:52;;;;;;;3.13;2.22;;;20.50;66.60;;;;;;5133225;28;20172;-66
2023/09/30 10:04:18;;;;;;;2.83;2.30;;;20.50;66.60;;;;;;5114568;28;20175;-67
2023/09/30 10:06:48;;;;;;;3.20;2.53;;;20.50;66.60;;;;;;5114285;28;20212;-67
2023/09/30 10:09:14;;;;;;;3.60;2.40;;;20.50;66.50;;;;;;5098067;28;20259;-67
2023/09/30 10:11:40;;;;;;;3.10;2.20;;;20.50;66.50;;;;;;5097969;28;20295;-67
2023/09/30 10:14:11;;;;;;;4.35;2.42;;;20.50;66.50;;;;;;5132468;28;20226;-66
2023/09/30 10:16:37;;;;;;;2.38;2.15;;;20.60;66.50;;;;;;5133277;28;20199;-67
2023/09/30 10:19:12;;;;;;;2.72;2.05;;;20.60;66.50;;;;;;5132386;28;20519;-67
2023/09/30 10:21:39;;;;;;;3.25;2.22;;;20.60;66.40;;;;;;5123473;28;20252;-67
2023/09/30 10:24:22;;;;;;;2.90;2.20;;;20.60;66.40;;;;;;5114378;28;20219;-67
2023/09/30 10:27:21;;;;;;;3.38;2.10;;;20.60;66.40;;;;;;5115968;28;20267;-67
2023/09/30 10:29:47;;;;;;;3.78;2.00;;;20.60;66.30;;;;;;5100545;28;20256;-66
2023/09/30 10:32:14;;;;;;;2.30;2.08;;;20.60;66.50;;;;;;5097817;28;20196;-67
2023/09/30 10:34:39;;;;;;;3.70;2.50;;;20.60;66.50;;;;;;5115909;28;20234;-66
2023/09/30 10:37:23;;;;;;;3.72;2.20;;;20.60;66.50;;;;;;5097741;28;20174;-66
2023/09/30 10:40:03;;;;;;;2.70;2.05;;;20.60;66.60;;;;;;5116534;28;20177;-66
2023/09/30 10:42:49;;;;;;;4.00;2.13;;;20.70;66.50;;;;;;5116190;28;20176;-66
2023/09/30 10:45:43;;;;;;;2.63;2.00;;;20.70;66.50;;;;;;5116144;28;20549;-67
2023/09/30 10:48:27;;;;;;;3.67;2.17;;;20.70;66.40;;;;;;5115162;28;20189;-67
2023/09/30 10:50:55;;;;;;;2.90;2.00;;;20.80;66.30;;;;;;5116107;28;20212;-66
2023/09/30 10:53:21;;;;;;;3.88;2.30;;;20.70;66.20;;;;;;5115949;28;20176;-66
2023/09/30 10:55:46;;;;;;;2.38;1.95;;;20.70;66.20;;;;;;5115577;28;20176;-66
2023/09/30 10:58:15;;;;;;;2.90;1.83;;;20.70;66.40;;;;;;5115909;28;20534;-66
2023/09/30 11:00:52;;;;;;;3.15;2.00;;;20.60;66.60;;;;;;5115930;28;20165;-67
2023/09/30 11:03:20;;;;;;;4.72;2.20;;;20.60;66.70;;;;;;5114954;28;20184;-67
2023/09/30 11:05:48;;;;;;;2.95;1.92;;;20.60;66.80;;;;;;5115886;28;20181;-67
2023/09/30 11:08:17;;;;;;;2.60;1.90;;;20.50;66.90;;;;;;5114951;28;20173;-67
2023/09/30 11:10:50;;;;;;;3.35;2.13;;;20.50;67.00;;;;;;5098038;28;20215;-66
2023/09/30 11:13:16;;;;;;;3.33;2.10;;;20.40;67.10;;;;;;5115654;28;20169;-66
2023/09/30 11:15:42;;;;;;;2.55;2.15;;;20.40;67.20;;;;;;5114967;28;20534;-66
2023/09/30 11:18:14;;;;;;;3.22;2.40;;;20.40;67.30;;;;;;5097022;28;20178;-67
2023/09/30 11:20:41;;;;;;;2.92;1.75;;;20.40;67.40;;;;;;5116673;27;20504;-67
2023/09/30 11:23:06;;;;;;;2.58;2.10;;;20.30;67.30;;;;;;5134954;27;20534;-66
2023/09/30 11:25:35;;;;;;;3.17;2.03;;;20.40;67.40;;;;;;5135967;27;20174;-67
2023/09/30 11:28:16;;;;;;;2.58;2.30;;;20.40;67.30;;;;;;5135958;27;20176;-66
2023/09/30 11:31:02;;;;;;;2.58;2.00;;;20.40;67.20;;;;;;5135343;27;20341;-67
2023/09/30 11:33:27;;;;;;;4.15;2.33;;;20.40;67.20;;;;;;5135636;27;20180;-67
2023/09/30 11:36:11;;;;;;;2.67;2.08;;;20.40;67.30;;;;;;5135792;27;20207;-66
2023/09/30 11:38:36;;;;;;;3.67;2.20;;;20.30;67.30;;;;;;5116733;27;20191;-66
2023/09/30 11:41:06;;;;;;;2.03;1.77;;;20.30;67.30;;;;;;5135430;27;20560;-66
2023/09/30 11:43:32;;;;;;;2.90;1.75;;;20.30;67.40;;;;;;5135152;27;20173;-66
2023/09/30 11:46:05;;;;;;;2.45;2.00;;;20.30;67.40;;;;;;5135489;27;20651;-67
2023/09/30 11:48:31;;;;;;;2.13;1.90;;;20.30;67.50;;;;;;5135637;27;20176;-67
2023/09/30 11:51:00;;;;;;;3.35;2.10;;;20.20;67.40;;;;;;5116536;27;20261;-66
2023/09/30 11:53:25;;;;;;;2.97;1.88;;;20.20;67.40;;;;;;5135284;27;20168;-66
2023/09/30 11:55:54;;;;;;;3.45;2.20;;;20.20;67.40;;;;;;5135707;27;20183;-66
2023/09/30 11:58:20;;;;;;;2.88;2.03;;;20.20;67.40;;;;;;5134473;27;20168;-66
2023/09/30 12:00:45;;;;;;;2.67;1.92;;;20.30;67.20;;;;;;5135344;27;20249;-66
2023/09/30 12:03:11;;;;;;;2.55;1.92;;;20.40;67.30;;;;;;5134947;27;20169;-67
2023/09/30 12:05:36;;;;;;;2.05;1.83;;;20.40;67.90;;;;;;5134505;27;20187;-67
2023/09/30 12:08:02;;;;;;;2.78;2.13;;;20.50;66.90;;;;;;5135001;27;20199;-67
2023/09/30 12:10:28;;;;;;;2.95;1.98;;;20.50;66.60;;;;;;5134801;27;20173;-67
2023/09/30 12:12:54;;;;;;;2.67;2.10;;;20.60;66.50;;;;;;5134547;27;20546;-66
2023/09/30 12:15:20;;;;;;;2.42;2.15;;;20.60;66.30;;;;;;5134833;27;20201;-67
2023/09/30 12:17:45;;;;;;;2.70;1.88;;;20.60;66.30;;;;;;5135248;27;20173;-66
2023/09/30 12:20:14;;;;;;;2.63;1.83;;;20.60;66.20;;;;;;5133951;27;20239;-66
2023/09/30 12:22:39;;;;;;;2.80;1.95;;;20.70;66.20;;;;;;5116400;27;20180;-67
2023/09/30 12:25:08;;;;;;;2.63;2.13;;;20.70;66.10;;;;;;5114241;28;20168;-67
2023/09/30 12:27:33;;;;;;;2.03;1.85;;;20.70;65.90;;;;;;5113385;28;20185;-67
2023/09/30 12:29:59;;;;;;;2.95;1.80;;;20.70;65.90;;;;;;5114223;28;20203;-67
2023/09/30 12:32:26;;;;;;;2.22;2.03;;;20.70;65.90;;;;;;5113856;28;20217;-66
2023/09/30 12:34:53;;;;;;;2.65;2.28;;;20.80;66.00;;;;;;5113376;28;20299;-66
2023/09/30 12:37:18;;;;;;;2.58;1.95;;;20.80;65.90;;;;;;5113621;28;20538;-66
2023/09/30 12:39:44;;;;;;;3.40;1.55;;;20.80;65.90;;;;;;5113513;28;20173;-66
2023/09/30 12:42:12;;;;;;;2.22;1.80;;;20.80;65.90;;;;;;5113883;28;20180;-66
2023/09/30 12:44:38;;;;;;;3.40;1.88;;;20.80;65.90;;;;;;5113896;28;20176;-67
2023/09/30 12:47:05;;;;;;;1.98;1.75;;;20.80;65.80;;;;;;5112261;28;20269;-67